Time;durP1;ratioP1;P1;durP2;ratioP2;P2;SDS_P1;SDS_P2;PMS_P1;PMS_P2;Temp;Humidity;BMP_temperature;BMP_pressure;BME280_temperature;BME280_humidity;BME280_pressure;Samples;Min_cycle;Max_cycle;Signal;HPM_P1;HPM_P2
2023/09/23 00:02:26;;;;;;;1.37;0.87;;;12.90;1.00;;;;;;5026329;28;20186;-80
2023/09/23 00:04:56;;;;;;;2.50;0.73;;;12.80;1.00;;;;;;5039215;28;20977;-80
2023/09/23 00:07:28;;;;;;;0.90;0.80;;;12.80;1.00;;;;;;5053372;28;20397;-80
2023/09/23 00:10:05;;;;;;;1.03;0.80;;;12.70;1.00;;;;;;5038936;28;20422;-80
2023/09/23 00:12:44;;;;;;;3.13;0.80;;;12.70;1.00;;;;;;5013790;28;20385;-80
2023/09/23 00:15:15;;;;;;;0.73;0.60;;;12.80;1.00;;;;;;5021078;28;20413;-80
2023/09/23 00:17:57;;;;;;;6.97;0.70;;;12.90;1.00;;;;;;5020396;28;20471;-80
2023/09/23 00:20:40;;;;;;;0.70;0.70;;;12.80;1.00;;;;;;5025353;28;20964;-80
2023/09/23 00:27:08;;;;;;;5.13;0.80;;;12.70;1.00;;;;;;5020787;28;20429;-80
2023/09/23 00:30:05;;;;;;;1.80;0.70;;;12.60;1.00;;;;;;5045482;28;20476;-80
2023/09/23 00:32:44;;;;;;;4.20;0.80;;;12.60;1.00;;;;;;5032744;28;20426;-80
2023/09/23 00:35:50;;;;;;;1.20;0.90;;;12.50;1.00;;;;;;5031967;28;20943;-80
2023/09/23 00:38:21;;;;;;;1.27;0.80;;;12.40;1.00;;;;;;5037380;28;20417;-80
2023/09/23 00:40:51;;;;;;;0.63;0.63;;;12.30;1.00;;;;;;5038419;28;20964;-80
2023/09/23 00:43:33;;;;;;;2.50;0.90;;;12.40;1.00;;;;;;5036080;28;20400;-80
2023/09/23 00:46:16;;;;;;;5.20;0.70;;;12.30;1.00;;;;;;5025205;28;20423;-80
2023/09/23 00:49:07;;;;;;;5.03;1.07;;;12.30;1.00;;;;;;5049577;28;20437;-83
2023/09/23 00:51:33;;;;;;;3.13;0.70;;;12.30;1.00;;;;;;5029289;28;20428;-84
2023/09/23 00:54:09;;;;;;;0.70;0.70;;;12.30;1.00;;;;;;5030618;28;20487;-83
2023/09/23 00:57:21;;;;;;;2.30;0.80;;;12.30;1.00;;;;;;5032631;28;20925;-84
2023/09/23 00:59:52;;;;;;;0.80;0.70;;;12.30;1.00;;;;;;5027271;28;20398;-83
2023/09/23 01:03:15;;;;;;;4.30;0.90;;;12.20;1.00;;;;;;5025693;28;20427;-83
2023/09/23 01:05:45;;;;;;;1.00;0.90;;;12.20;1.00;;;;;;5045230;28;20417;-80
2023/09/23 01:08:32;;;;;;;1.10;0.90;;;12.40;1.00;;;;;;5053253;28;20389;-80
2023/09/23 01:11:04;;;;;;;0.73;0.73;;;12.40;1.00;;;;;;5036513;28;20393;-80
2023/09/23 01:13:32;;;;;;;2.40;1.10;;;12.50;1.00;;;;;;5020361;28;20423;-80
2023/09/23 01:16:21;;;;;;;1.00;0.60;;;12.30;1.00;;;;;;5035820;28;20742;-80
2023/09/23 01:18:51;;;;;;;1.47;0.80;;;12.40;1.00;;;;;;5046536;28;20449;-82
2023/09/23 01:24:39;;;;;;;0.90;0.90;;;12.50;1.00;;;;;;5034603;28;20472;-83
2023/09/23 01:27:35;;;;;;;1.63;0.90;;;12.50;1.00;;;;;;5033997;28;20413;-83
2023/09/23 01:33:22;;;;;;;8.30;0.90;;;12.50;1.00;;;;;;5029718;28;20394;-84
2023/09/23 01:35:48;;;;;;;8.93;0.70;;;12.60;1.00;;;;;;5039707;28;20433;-84
2023/09/23 01:38:15;;;;;;;0.70;0.70;;;12.60;1.00;;;;;;5025613;28;20838;-84
2023/09/23 01:40:41;;;;;;;2.43;0.70;;;12.60;1.00;;;;;;5037700;28;20187;-84
2023/09/23 01:43:10;;;;;;;3.90;0.73;;;12.70;1.00;;;;;;5034234;28;20423;-84
2023/09/23 01:45:36;;;;;;;0.60;0.60;;;12.70;1.00;;;;;;5052096;28;20175;-84
2023/09/23 01:48:03;;;;;;;5.90;1.00;;;12.80;1.00;;;;;;5037256;28;20465;-84
2023/09/23 01:51:10;;;;;;;0.70;0.60;;;12.70;1.00;;;;;;5039711;28;20571;-84
2023/09/23 01:53:51;;;;;;;1.87;0.73;;;12.70;1.00;;;;;;5030897;28;20423;-84
2023/09/23 01:56:34;;;;;;;0.83;0.67;;;12.70;1.00;;;;;;5032214;28;20471;-84
2023/09/23 01:59:02;;;;;;;0.70;0.70;;;12.70;1.00;;;;;;5028898;28;20401;-84
2023/09/23 02:01:43;;;;;;;0.60;0.60;;;12.60;1.00;;;;;;5035739;28;20355;-83
2023/09/23 02:04:09;;;;;;;9.40;0.70;;;13.10;1.00;;;;;;5026840;28;20423;-83
2023/09/23 02:06:44;;;;;;;0.67;0.67;;;12.70;1.00;;;;;;5027146;28;20764;-80
2023/09/23 02:09:15;;;;;;;9.83;0.90;;;12.70;1.00;;;;;;5018837;28;20633;-80
2023/09/23 02:12:02;;;;;;;3.60;0.60;;;12.70;1.00;;;;;;5021880;28;20464;-80
2023/09/23 02:14:29;;;;;;;2.00;0.80;;;12.80;1.00;;;;;;5025284;28;20502;-79
2023/09/23 02:17:03;;;;;;;0.60;0.60;;;12.80;1.00;;;;;;5019209;28;20458;-80
2023/09/23 02:19:28;;;;;;;2.50;0.70;;;12.90;1.00;;;;;;5034457;28;22478;-87
2023/09/23 02:25:51;;;;;;;0.80;0.73;;;12.80;1.00;;;;;;5027144;28;20548;-87
2023/09/23 02:29:03;;;;;;;0.83;0.83;;;12.80;1.00;;;;;;5034560;28;20424;-86
2023/09/23 02:32:02;;;;;;;1.33;0.90;;;12.80;1.00;;;;;;5020501;28;20410;-86
2023/09/23 02:38:21;;;;;;;0.70;0.70;;;12.70;1.00;;;;;;5034171;28;20789;-87
2023/09/23 02:41:32;;;;;;;7.00;1.00;;;12.60;1.00;;;;;;5030245;28;20402;-86
2023/09/23 02:44:29;;;;;;;3.17;0.97;;;12.50;1.00;;;;;;5045110;28;20476;-86
2023/09/23 02:47:32;;;;;;;0.60;0.60;;;12.20;1.00;;;;;;5032138;28;20462;-86
2023/09/23 02:50:09;;;;;;;1.60;0.80;;;12.10;1.00;;;;;;5012963;28;20429;-86
2023/09/23 02:56:20;;;;;;;1.23;0.70;;;11.90;1.00;;;;;;5026167;28;20388;-86
2023/09/23 02:59:31;;;;;;;1.60;0.73;;;11.80;1.00;;;;;;5032938;28;20432;-86
2023/09/23 03:01:58;;;;;;;3.23;0.80;;;11.80;1.00;;;;;;5012891;28;20427;-86
2023/09/23 03:04:29;;;;;;;2.00;0.70;;;11.80;1.00;;;;;;5002298;28;20376;-86
2023/09/23 03:07:49;;;;;;;0.80;0.80;;;11.70;1.00;;;;;;5014882;28;20410;-91
2023/09/23 03:11:09;;;;;;;0.70;0.70;;;11.60;1.00;;;;;;5020523;28;20902;-91
2023/09/23 03:14:03;;;;;;;0.83;0.83;;;11.50;1.00;;;;;;5022226;28;20526;-91
2023/09/23 03:17:03;;;;;;;2.30;0.80;;;11.50;1.00;;;;;;5019205;28;20419;-91
2023/09/23 03:19:31;;;;;;;0.90;0.80;;;11.40;1.00;;;;;;4996582;28;21026;-91
2023/09/23 03:22:03;;;;;;;0.80;0.77;;;11.40;1.00;;;;;;4996032;28;20399;-86
2023/09/23 03:24:48;;;;;;;1.23;0.80;;;11.40;1.00;;;;;;5012884;28;20398;-85
2023/09/23 03:27:32;;;;;;;3.13;0.80;;;11.30;1.00;;;;;;5015120;28;20370;-86
2023/09/23 03:30:15;;;;;;;2.67;1.00;;;11.30;1.00;;;;;;5014105;28;20375;-86
2023/09/23 03:33:32;;;;;;;0.80;0.80;;;11.30;1.00;;;;;;5032233;28;20412;-86
2023/09/23 03:36:03;;;;;;;3.23;1.20;;;11.20;1.00;;;;;;5031668;28;20493;-86
2023/09/23 03:39:03;;;;;;;4.93;1.17;;;11.20;1.00;;;;;;5011220;28;20422;-86
2023/09/23 03:41:33;;;;;;;2.50;1.07;;;11.10;1.00;;;;;;5010319;28;20392;-86
2023/09/23 03:47:21;;;;;;;1.00;1.00;;;11.10;1.00;;;;;;5005092;28;20509;-86
2023/09/23 03:49:47;;;;;;;7.50;1.33;;;11.10;1.00;;;;;;5005540;28;20534;-84
2023/09/23 03:52:33;;;;;;;3.17;1.20;;;11.10;1.00;;;;;;5011374;28;21165;-91
2023/09/23 03:55:32;;;;;;;2.07;1.20;;;11.10;1.00;;;;;;5013584;28;20184;-91
2023/09/23 03:58:04;;;;;;;2.00;1.17;;;11.10;1.00;;;;;;5022590;28;20765;-91
2023/09/23 04:01:13;;;;;;;6.03;1.40;;;11.00;1.00;;;;;;5015729;28;20400;-91
2023/09/23 04:07:01;;;;;;;1.30;1.10;;;10.90;1.00;;;;;;5019383;28;20406;-86
2023/09/23 04:09:26;;;;;;;1.00;0.90;;;10.90;1.00;;;;;;5032452;28;20419;-86
2023/09/23 04:11:52;;;;;;;5.63;1.00;;;10.90;1.00;;;;;;5021818;28;20267;-86
2023/09/23 04:14:38;;;;;;;8.33;1.50;;;10.90;1.00;;;;;;5032420;28;20639;-85
2023/09/23 04:17:15;;;;;;;0.90;0.90;;;10.80;1.00;;;;;;5009359;28;20194;-86
2023/09/23 04:19:40;;;;;;;2.23;0.90;;;10.80;1.00;;;;;;5032879;28;20415;-85
2023/09/23 04:22:32;;;;;;;3.20;1.07;;;10.80;1.00;;;;;;5024214;28;20487;-85
2023/09/23 04:25:06;;;;;;;1.57;1.30;;;10.80;1.00;;;;;;4993521;28;20169;-86
2023/09/23 04:28:02;;;;;;;2.90;1.10;;;10.80;1.00;;;;;;5020002;28;20782;-85
2023/09/23 04:30:33;;;;;;;2.70;1.23;;;10.90;1.00;;;;;;5013288;28;20422;-85
2023/09/23 04:33:03;;;;;;;1.20;1.20;;;11.00;1.00;;;;;;5019145;28;20409;-86
2023/09/23 04:39:32;;;;;;;3.43;1.47;;;11.10;1.00;;;;;;5006899;28;20429;-86
2023/09/23 04:42:32;;;;;;;1.37;1.27;;;11.10;1.00;;;;;;5002069;28;20428;-86
2023/09/23 04:45:06;;;;;;;4.00;1.70;;;11.20;1.00;;;;;;5004289;28;20418;-86
2023/09/23 04:48:03;;;;;;;7.40;2.40;;;11.30;1.00;;;;;;5014518;28;20428;-85
2023/09/23 04:51:03;;;;;;;5.23;1.30;;;;;;;;;;5004960;28;20447;-85
2023/09/23 04:54:02;;;;;;;2.20;1.30;;;11.30;1.00;;;;;;5020300;28;20408;-85
2023/09/23 04:56:32;;;;;;;2.60;1.57;;;11.40;1.00;;;;;;5022177;28;20785;-85
2023/09/23 04:59:03;;;;;;;1.67;1.57;;;11.50;1.00;;;;;;5000911;28;20458;-85
2023/09/23 05:01:33;;;;;;;2.20;2.00;;;11.50;1.60;;;;;;5009169;28;20435;-85
2023/09/23 05:04:09;;;;;;;1.83;1.40;;;11.60;1.00;;;;;;5012955;28;20438;-86
2023/09/23 05:07:03;;;;;;;1.47;1.37;;;11.50;1.00;;;;;;5029783;28;20764;-90
2023/09/23 05:10:03;;;;;;;10.60;1.87;;;11.40;1.00;;;;;;5014241;28;20419;-90
2023/09/23 05:12:33;;;;;;;12.10;5.63;;;11.30;1.00;;;;;;5001758;28;20930;-90
2023/09/23 05:18:32;;;;;;;1.60;1.50;;;11.10;1.00;;;;;;5013484;28;20487;-90
2023/09/23 05:21:04;;;;;;;1.80;1.70;;;11.00;1.00;;;;;;5012858;28;20443;-90
2023/09/23 05:27:03;;;;;;;2.60;1.67;;;;;;;;;;5023997;28;20413;-90
2023/09/23 05:33:02;;;;;;;2.23;2.10;;;10.80;1.40;;;;;;5030368;28;20460;-90
2023/09/23 05:35:33;;;;;;;2.70;2.37;;;10.80;1.60;;;;;;5016381;28;20514;-90
2023/09/23 05:38:03;;;;;;;2.50;2.30;;;10.70;3.10;;;;;;5019248;28;20537;-85
2023/09/23 05:41:03;;;;;;;3.17;2.03;;;10.70;3.30;;;;;;5024171;28;20456;-85
2023/09/23 05:43:33;;;;;;;2.47;2.27;;;10.70;1.90;;;;;;5015740;28;20502;-85
2023/09/23 05:46:06;;;;;;;8.13;2.50;;;10.70;3.70;;;;;;5032142;28;20399;-83
2023/09/23 05:48:39;;;;;;;2.57;2.30;;;10.70;4.50;;;;;;5020871;28;20443;-85
2023/09/23 05:57:50;;;;;;;4.50;3.03;;;;;;;;;;5010856;28;20445;-89
2023/09/23 06:04:20;;;;;;;6.03;2.80;;;10.80;10.80;;;;;;5016638;28;20464;-88
2023/09/23 06:07:38;;;;;;;4.83;3.37;;;10.90;11.70;;;;;;5029030;28;20455;-88
2023/09/23 06:10:44;;;;;;;5.30;3.10;;;10.90;12.60;;;;;;5023352;28;20794;-89
2023/09/23 06:13:14;;;;;;;13.23;3.27;;;11.00;10.30;;;;;;5028037;28;20405;-88
2023/09/23 06:15:44;;;;;;;6.07;3.77;;;11.10;13.60;;;;;;5021720;28;20948;-89
2023/09/23 06:18:15;;;;;;;6.50;3.37;;;11.00;11.60;;;;;;5020852;28;20426;-88
2023/09/23 06:20:41;;;;;;;4.43;2.97;;;11.00;12.60;;;;;;5014185;28;20444;-88
2023/09/23 06:23:22;;;;;;;6.50;3.60;;;11.10;9.10;;;;;;5013652;28;20428;-85
2023/09/23 06:25:54;;;;;;;3.53;3.17;;;11.10;11.00;;;;;;5011929;28;20540;-84
2023/09/23 06:28:34;;;;;;;6.50;3.10;;;11.20;10.00;;;;;;5019710;28;20411;-84
2023/09/23 06:31:00;;;;;;;4.17;3.30;;;11.20;9.90;;;;;;5035998;28;20365;-85
2023/09/23 06:33:27;;;;;;;9.13;3.67;;;11.30;7.80;;;;;;5018325;28;20932;-84
2023/09/23 06:35:53;;;;;;;3.97;2.80;;;11.30;4.70;;;;;;5028069;28;20407;-85
2023/09/23 06:38:18;;;;;;;4.83;3.40;;;11.50;8.10;;;;;;5019445;28;20450;-88
2023/09/23 06:40:55;;;;;;;8.47;3.50;;;11.30;3.10;;;;;;5017445;28;20184;-89
2023/09/23 06:43:33;;;;;;;3.63;3.20;;;11.40;6.70;;;;;;5026620;28;20255;-89
2023/09/23 06:45:59;;;;;;;7.20;3.23;;;11.40;6.60;;;;;;5030801;28;20423;-88
2023/09/23 06:48:33;;;;;;;4.33;3.27;;;11.50;6.90;;;;;;5015309;28;20443;-88
2023/09/23 06:50:59;;;;;;;5.70;3.33;;;11.50;4.70;;;;;;5005372;28;21041;-88
2023/09/23 06:53:26;;;;;;;9.30;3.70;;;11.50;2.20;;;;;;5009458;28;20411;-84
2023/09/23 06:55:52;;;;;;;3.00;2.80;;;11.50;6.10;;;;;;5015877;28;20456;-84
2023/09/23 06:58:18;;;;;;;3.50;2.97;;;11.50;6.10;;;;;;5013764;28;20491;-84
2023/09/23 07:00:43;;;;;;;5.60;3.93;;;11.50;5.40;;;;;;5012979;28;20479;-85
2023/09/23 07:03:09;;;;;;;5.50;3.50;;;11.50;6.30;;;;;;5014821;28;20383;-85
2023/09/23 07:05:35;;;;;;;6.07;3.43;;;11.60;6.80;;;;;;5014677;28;20169;-86
2023/09/23 07:08:01;;;;;;;4.07;2.70;;;11.70;2.40;;;;;;5014909;28;20193;-91
2023/09/23 07:10:27;;;;;;;7.00;3.17;;;;;;;;;;5008333;28;20332;-90
2023/09/23 07:16:15;;;;;;;9.13;3.67;;;12.00;4.30;;;;;;5014849;28;20427;-84
2023/09/23 07:18:51;;;;;;;3.90;3.20;;;12.10;1.00;;;;;;5014585;28;20451;-84
2023/09/23 07:21:21;;;;;;;3.80;3.50;;;12.50;1.00;;;;;;5014014;28;20184;-89
2023/09/23 07:23:57;;;;;;;3.70;3.30;;;12.20;1.00;;;;;;5014345;28;20409;-84
2023/09/23 07:29:45;;;;;;;2.93;2.70;;;12.30;1.00;;;;;;5007813;28;20391;-84
2023/09/23 07:32:32;;;;;;;4.13;3.30;;;12.40;1.00;;;;;;5013837;28;20744;-85
2023/09/23 07:34:59;;;;;;;4.50;3.23;;;12.40;1.00;;;;;;5014702;28;20161;-83
2023/09/23 07:37:28;;;;;;;4.10;3.50;;;12.50;1.00;;;;;;5014886;28;20742;-83
2023/09/23 07:40:14;;;;;;;5.70;3.07;;;12.60;1.00;;;;;;5014284;28;20375;-78
2023/09/23 07:42:40;;;;;;;2.80;2.60;;;12.60;1.00;;;;;;5024960;28;20419;-78
2023/09/23 07:45:08;;;;;;;5.77;3.00;;;12.60;1.00;;;;;;5007287;28;20914;-79
2023/09/23 07:47:45;;;;;;;5.53;2.70;;;12.60;1.00;;;;;;5009798;28;20174;-79
2023/09/23 07:50:15;;;;;;;4.10;2.70;;;12.80;1.00;;;;;;4999663;28;20410;-79
2023/09/23 07:52:41;;;;;;;4.90;2.90;;;12.80;1.00;;;;;;5011562;28;20382;-79
2023/09/23 08:01:53;;;;;;;4.17;2.50;;;13.10;1.00;;;;;;5008278;28;20468;-84
2023/09/23 08:04:56;;;;;;;4.30;2.73;;;13.10;1.00;;;;;;5004551;28;20401;-83
2023/09/23 08:07:26;;;;;;;5.50;3.70;;;13.20;1.00;;;;;;5008746;28;21028;-84
2023/09/23 08:09:52;;;;;;;3.00;2.80;;;13.30;1.00;;;;;;5019743;28;20800;-79
2023/09/23 08:12:21;;;;;;;6.77;2.43;;;13.40;1.00;;;;;;5024256;28;20530;-81
2023/09/23 08:15:20;;;;;;;3.00;2.27;;;13.70;1.00;;;;;;5012340;28;20235;-79
2023/09/23 08:18:15;;;;;;;2.63;2.30;;;13.90;1.00;;;;;;5009123;28;20431;-81
2023/09/23 08:21:32;;;;;;;9.00;2.57;;;14.10;1.00;;;;;;5012707;28;20780;-80
2023/09/23 08:24:03;;;;;;;7.70;2.23;;;14.50;1.00;;;;;;5022915;28;20860;-83
2023/09/23 08:29:50;;;;;;;2.20;2.00;;;15.10;1.00;;;;;;5022026;28;20953;-83
2023/09/23 08:35:40;;;;;;;2.43;2.23;;;15.50;1.00;;;;;;5026975;28;20180;-83
2023/09/23 08:38:26;;;;;;;4.40;1.80;;;15.60;1.00;;;;;;5002881;28;20459;-81
2023/09/23 08:41:00;;;;;;;5.37;2.50;;;15.90;1.00;;;;;;4994429;28;20400;-82
2023/09/23 08:43:42;;;;;;;4.30;2.10;;;15.80;1.00;;;;;;5010910;28;20401;-83
2023/09/23 08:53:21;;;;;;;3.30;2.13;;;15.70;1.00;;;;;;5017122;28;20386;-82
2023/09/23 08:56:26;;;;;;;4.60;2.27;;;15.80;1.00;;;;;;5013635;28;20379;-79
2023/09/23 08:58:57;;;;;;;4.57;2.17;;;15.50;1.00;;;;;;5016030;28;20569;-79
2023/09/23 09:01:42;;;;;;;5.77;1.57;;;15.60;1.00;;;;;;5016631;28;20926;-80
2023/09/23 09:04:21;;;;;;;4.10;2.20;;;15.60;1.00;;;;;;5027513;28;20428;-80
2023/09/23 09:07:08;;;;;;;2.73;2.10;;;15.60;1.00;;;;;;5012563;28;20466;-80
2023/09/23 09:09:37;;;;;;;2.17;1.83;;;15.70;1.00;;;;;;5018141;28;20435;-82
2023/09/23 09:12:05;;;;;;;3.80;1.83;;;15.70;1.00;;;;;;5025349;28;20451;-82
2023/09/23 09:14:32;;;;;;;3.57;2.00;;;15.90;1.00;;;;;;5010308;28;20447;-83
2023/09/23 09:16:58;;;;;;;8.10;2.37;;;16.00;1.00;;;;;;5007719;28;20429;-82
2023/09/23 09:19:27;;;;;;;9.90;1.93;;;16.10;1.00;;;;;;5025574;28;20410;-82
2023/09/23 09:21:54;;;;;;;5.23;2.00;;;16.10;1.00;;;;;;5036331;28;20196;-82
2023/09/23 09:24:50;;;;;;;1.70;1.60;;;16.40;1.00;;;;;;5032849;28;20412;-82
2023/09/23 09:27:16;;;;;;;3.20;1.80;;;16.40;1.00;;;;;;4997192;28;20403;-82
2023/09/23 09:29:51;;;;;;;7.40;2.03;;;16.50;1.00;;;;;;4997078;28;20494;-82
2023/09/23 09:32:29;;;;;;;2.30;1.77;;;16.70;1.00;;;;;;5026718;28;20582;-82
2023/09/23 09:35:44;;;;;;;2.17;1.90;;;16.80;1.00;;;;;;5016227;28;20472;-83
2023/09/23 09:38:17;;;;;;;3.30;2.03;;;16.50;1.00;;;;;;5027024;28;20471;-82
2023/09/23 09:40:45;;;;;;;4.43;2.07;;;16.60;1.00;;;;;;5035269;28;20453;-80
2023/09/23 09:43:11;;;;;;;1.57;1.47;;;16.40;1.00;;;;;;5028045;28;20503;-80
2023/09/23 09:45:40;;;;;;;4.43;1.50;;;16.40;1.00;;;;;;5022585;28;20448;-80
2023/09/23 09:48:12;;;;;;;3.50;1.67;;;16.30;1.00;;;;;;5036044;28;20367;-80
2023/09/23 09:50:39;;;;;;;3.03;1.60;;;16.30;1.00;;;;;;5020113;28;20411;-79
2023/09/23 09:53:17;;;;;;;1.90;1.43;;;16.40;1.00;;;;;;5007102;28;20422;-80
2023/09/23 09:55:44;;;;;;;2.90;1.20;;;16.50;1.00;;;;;;5024056;28;20432;-80
2023/09/23 09:58:15;;;;;;;3.47;1.27;;;16.40;1.00;;;;;;5015447;28;20458;-80
2023/09/23 10:00:44;;;;;;;1.40;1.30;;;16.20;1.00;;;;;;5025706;28;20474;-79
2023/09/23 10:03:13;;;;;;;1.97;1.30;;;16.20;1.00;;;;;;5013825;28;20428;-80
2023/09/23 10:05:49;;;;;;;7.63;1.53;;;16.20;1.00;;;;;;5022506;28;20507;-79
2023/09/23 10:08:24;;;;;;;7.83;1.30;;;16.40;1.00;;;;;;5032810;28;20466;-80
2023/09/23 10:11:39;;;;;;;1.90;1.27;;;16.40;1.00;;;;;;5021851;28;20491;-80
2023/09/23 10:14:44;;;;;;;2.03;1.40;;;16.70;1.00;;;;;;4996227;28;20488;-80
2023/09/23 10:17:33;;;;;;;3.00;1.30;;;16.90;1.00;;;;;;5019934;28;20422;-79
2023/09/23 10:20:12;;;;;;;2.97;1.20;;;16.90;1.00;;;;;;5015771;28;20436;-80
2023/09/23 10:22:49;;;;;;;1.77;1.17;;;17.00;1.00;;;;;;5015561;28;20536;-80
2023/09/23 10:25:53;;;;;;;10.57;1.70;;;17.30;1.00;;;;;;5027810;28;20782;-82
2023/09/23 10:29:05;;;;;;;2.73;1.30;;;17.70;1.00;;;;;;4993838;28;20514;-82
2023/09/23 10:31:39;;;;;;;2.60;1.43;;;18.00;1.00;;;;;;4991952;28;20432;-82
2023/09/23 10:34:50;;;;;;;4.20;1.20;;;18.30;1.00;;;;;;4993775;28;20891;-82
2023/09/23 10:37:35;;;;;;;1.97;1.10;;;18.30;1.00;;;;;;4986508;28;20506;-81
2023/09/23 10:40:09;;;;;;;2.57;1.27;;;18.30;1.00;;;;;;4994175;28;20427;-81
2023/09/23 10:42:51;;;;;;;2.20;1.17;;;18.40;1.00;;;;;;4971714;28;20437;-81
2023/09/23 10:45:17;;;;;;;2.60;1.00;;;18.70;1.00;;;;;;4993632;28;21138;-82
2023/09/23 10:47:43;;;;;;;3.50;1.30;;;18.80;1.00;;;;;;4977309;28;20434;-82
2023/09/23 10:51:04;;;;;;;9.57;1.33;;;18.50;1.00;;;;;;4981041;28;20228;-82
2023/09/23 10:53:30;;;;;;;3.63;1.30;;;18.50;1.00;;;;;;4998042;28;20427;-81
2023/09/23 10:56:14;;;;;;;5.87;1.20;;;18.60;1.00;;;;;;5001702;28;20428;-80
2023/09/23 10:58:45;;;;;;;3.10;1.03;;;18.50;1.00;;;;;;4971716;28;20248;-79
2023/09/23 11:01:21;;;;;;;3.70;1.00;;;18.70;1.00;;;;;;4987094;28;20435;-79
2023/09/23 11:04:08;;;;;;;2.80;1.07;;;18.70;1.00;;;;;;5023639;28;20896;-79
2023/09/23 11:06:51;;;;;;;4.40;0.93;;;18.50;1.00;;;;;;5031806;28;20438;-80
2023/09/23 11:09:33;;;;;;;1.70;1.10;;;18.20;1.00;;;;;;5013630;28;20414;-79
2023/09/23 11:15:21;;;;;;;5.33;1.20;;;18.40;1.00;;;;;;5025117;28;20386;-81
2023/09/23 11:17:54;;;;;;;2.40;1.10;;;18.50;1.00;;;;;;5028994;28;20459;-81
2023/09/23 11:24:12;;;;;;;2.63;0.87;;;18.90;1.00;;;;;;5006455;28;20850;-81
2023/09/23 11:26:45;;;;;;;3.20;1.23;;;18.90;1.00;;;;;;4973468;28;20538;-79
2023/09/23 11:29:27;;;;;;;1.63;1.10;;;19.00;1.00;;;;;;4977928;28;20432;-79
2023/09/23 11:31:57;;;;;;;3.83;1.20;;;19.10;1.00;;;;;;4988790;28;21059;-79
2023/09/23 11:34:39;;;;;;;2.30;1.20;;;19.00;1.00;;;;;;4985309;28;20442;-79
2023/09/23 11:37:16;;;;;;;2.60;1.10;;;19.00;1.00;;;;;;4985984;28;20461;-79
2023/09/23 11:39:45;;;;;;;3.30;1.37;;;19.10;1.00;;;;;;4984585;28;20482;-79
2023/09/23 11:42:15;;;;;;;3.83;1.17;;;19.50;1.00;;;;;;4971299;28;20522;-81
2023/09/23 11:44:51;;;;;;;4.40;0.80;;;19.60;1.00;;;;;;4986035;28;20489;-80
2023/09/23 11:47:21;;;;;;;1.87;1.00;;;19.60;1.00;;;;;;4975729;28;20435;-81
2023/09/23 11:49:46;;;;;;;1.43;1.33;;;19.80;1.00;;;;;;4980622;28;20501;-81
2023/09/23 11:52:12;;;;;;;1.77;0.90;;;20.00;1.00;;;;;;4992603;28;20537;-81
2023/09/23 11:54:40;;;;;;;2.83;1.10;;;20.10;1.00;;;;;;4988273;28;20199;-81
2023/09/23 11:57:15;;;;;;;3.70;1.00;;;20.20;1.00;;;;;;4976046;28;20686;-81
2023/09/23 12:00:03;;;;;;;3.33;1.17;;;20.30;1.00;;;;;;4983061;28;20912;-81
2023/09/23 12:02:33;;;;;;;1.10;0.97;;;20.20;1.00;;;;;;4979203;28;20435;-81
2023/09/23 12:05:06;;;;;;;2.60;1.30;;;19.90;1.00;;;;;;5018140;28;20862;-80
2023/09/23 12:07:58;;;;;;;9.50;1.30;;;19.70;1.00;;;;;;5033739;28;20868;-80
2023/09/23 12:10:28;;;;;;;10.83;1.60;;;19.30;1.00;;;;;;5033911;28;20404;-80
2023/09/23 12:13:14;;;;;;;2.23;1.20;;;19.30;1.00;;;;;;5029137;28;20906;-80
2023/09/23 12:16:02;;;;;;;1.87;0.90;;;19.20;1.00;;;;;;5027328;28;20413;-80
2023/09/23 12:18:28;;;;;;;1.33;1.20;;;19.20;1.00;;;;;;5013682;28;20455;-79
2023/09/23 12:20:58;;;;;;;1.33;1.13;;;19.30;1.00;;;;;;5028939;28;20545;-79
2023/09/23 12:23:25;;;;;;;4.10;0.97;;;19.30;1.00;;;;;;5033364;28;20240;-80
2023/09/23 12:26:05;;;;;;;1.83;1.40;;;19.40;1.00;;;;;;5032503;28;20436;-80
2023/09/23 12:28:30;;;;;;;3.10;1.00;;;19.40;1.00;;;;;;5016359;28;20515;-79
2023/09/23 12:30:57;;;;;;;4.67;1.17;;;19.50;1.00;;;;;;5030615;28;20502;-79
2023/09/23 12:33:27;;;;;;;1.17;1.07;;;19.40;1.00;;;;;;5016858;28;20662;-79
2023/09/23 12:35:57;;;;;;;4.83;1.10;;;19.40;1.00;;;;;;5016333;28;20935;-80
2023/09/23 12:38:39;;;;;;;1.10;1.00;;;19.40;1.00;;;;;;5017489;28;20459;-80
2023/09/23 12:41:09;;;;;;;1.83;1.00;;;19.40;1.00;;;;;;5016652;28;20444;-80
2023/09/23 12:43:45;;;;;;;4.33;1.00;;;19.30;1.00;;;;;;5033553;28;20413;-81
2023/09/23 12:46:10;;;;;;;1.60;1.27;;;19.40;1.00;;;;;;5030619;28;20451;-80
2023/09/23 12:49:02;;;;;;;1.83;0.80;;;19.60;1.00;;;;;;5028678;28;20526;-80
2023/09/23 12:51:33;;;;;;;2.40;0.80;;;19.70;1.00;;;;;;5010406;28;20186;-80
2023/09/23 12:53:58;;;;;;;5.33;1.40;;;19.70;1.00;;;;;;5008593;28;20424;-80
2023/09/23 12:56:33;;;;;;;1.43;1.00;;;19.70;1.00;;;;;;5018094;28;20478;-80
2023/09/23 12:59:05;;;;;;;2.70;1.03;;;19.70;1.00;;;;;;5022969;28;20253;-80
2023/09/23 13:01:39;;;;;;;1.90;1.00;;;19.60;1.00;;;;;;5017992;28;21051;-79
2023/09/23 13:04:15;;;;;;;2.60;1.20;;;19.60;1.00;;;;;;5032572;28;20435;-80
2023/09/23 13:06:41;;;;;;;1.50;1.10;;;19.40;1.00;;;;;;5015830;28;20460;-80
2023/09/23 13:09:21;;;;;;;1.10;0.97;;;19.50;1.00;;;;;;5016940;28;20442;-80
2023/09/23 13:12:20;;;;;;;3.50;1.20;;;19.70;1.00;;;;;;5016146;28;20466;-80
2023/09/23 13:14:52;;;;;;;1.63;0.97;;;20.00;1.00;;;;;;5029565;28;20476;-80
2023/09/23 13:17:27;;;;;;;3.07;0.93;;;20.20;1.00;;;;;;5024939;28;20428;-80
2023/09/23 13:20:32;;;;;;;5.40;1.53;;;20.20;1.00;;;;;;5008123;28;20413;-80
2023/09/23 13:23:38;;;;;;;3.87;1.10;;;20.20;1.00;;;;;;5035828;28;20422;-80
2023/09/23 13:26:21;;;;;;;2.53;1.00;;;20.20;1.00;;;;;;5028563;28;20957;-80
2023/09/23 13:28:57;;;;;;;4.80;1.30;;;20.10;1.00;;;;;;5018144;28;20431;-80
2023/09/23 13:31:27;;;;;;;2.20;1.10;;;20.00;1.00;;;;;;5035068;28;20950;-80
2023/09/23 13:34:20;;;;;;;1.03;0.93;;;19.90;1.00;;;;;;5036323;28;20757;-80
2023/09/23 13:37:14;;;;;;;4.80;1.10;;;19.80;1.00;;;;;;5028742;28;20437;-80
2023/09/23 13:39:45;;;;;;;8.63;1.00;;;19.80;1.00;;;;;;5025452;28;20471;-80
2023/09/23 13:42:38;;;;;;;2.03;1.00;;;19.80;1.00;;;;;;5029961;28;20984;-79
2023/09/23 13:48:27;;;;;;;1.43;1.10;;;19.70;1.00;;;;;;5036094;28;20397;-80
2023/09/23 13:51:09;;;;;;;6.20;1.00;;;19.60;1.00;;;;;;5022817;28;20439;-79
2023/09/23 13:53:51;;;;;;;2.90;1.00;;;19.30;1.00;;;;;;5024110;28;20416;-79
2023/09/23 13:56:21;;;;;;;3.63;1.20;;;19.30;1.00;;;;;;5018890;28;20783;-80
2023/09/23 13:58:51;;;;;;;3.10;1.10;;;19.50;1.00;;;;;;5034626;28;20543;-80
2023/09/23 14:01:44;;;;;;;1.23;0.80;;;19.40;1.00;;;;;;5033058;28;20417;-79
2023/09/23 14:04:15;;;;;;;1.30;0.90;;;19.50;1.00;;;;;;5023330;28;20405;-79
2023/09/23 14:06:41;;;;;;;1.40;0.77;;;19.50;1.00;;;;;;5019106;28;20429;-79
2023/09/23 14:09:32;;;;;;;5.00;0.93;;;19.60;1.00;;;;;;5028606;28;20432;-79
2023/09/23 14:12:03;;;;;;;1.23;0.90;;;19.60;1.00;;;;;;5012391;28;20424;-80
2023/09/23 14:14:56;;;;;;;8.60;0.90;;;19.80;1.00;;;;;;5032921;28;20421;-80
2023/09/23 14:17:22;;;;;;;1.47;0.90;;;19.70;1.00;;;;;;5021314;28;20439;-80
2023/09/23 14:19:51;;;;;;;1.10;1.00;;;19.70;1.00;;;;;;5010852;28;20415;-80
2023/09/23 14:22:16;;;;;;;0.93;0.90;;;19.90;1.00;;;;;;5023629;28;20262;-81
2023/09/23 14:24:42;;;;;;;2.43;1.03;;;20.10;1.00;;;;;;5030185;28;20523;-80
2023/09/23 14:27:08;;;;;;;2.70;1.50;;;20.20;1.00;;;;;;5014078;28;20211;-79
2023/09/23 14:29:34;;;;;;;2.50;1.10;;;19.80;1.00;;;;;;5022287;28;20194;-80
2023/09/23 14:32:15;;;;;;;4.40;1.40;;;19.80;1.00;;;;;;5016342;28;20768;-80
2023/09/23 14:34:51;;;;;;;1.37;0.97;;;19.80;1.00;;;;;;5028565;28;20413;-79
2023/09/23 14:37:39;;;;;;;3.63;1.10;;;19.70;1.00;;;;;;5014419;28;20528;-79
2023/09/23 14:40:09;;;;;;;1.80;0.90;;;19.60;1.00;;;;;;5015171;28;20499;-80
2023/09/23 14:43:14;;;;;;;7.93;1.03;;;19.50;1.00;;;;;;5017045;28;20413;-80
2023/09/23 14:45:45;;;;;;;13.83;1.20;;;19.30;1.00;;;;;;5010738;28;20422;-81
2023/09/23 14:48:56;;;;;;;4.00;1.00;;;19.10;1.00;;;;;;5005742;28;20984;-80
2023/09/23 14:51:27;;;;;;;5.30;1.40;;;19.10;1.00;;;;;;5015559;28;20532;-80
2023/09/23 14:54:38;;;;;;;1.50;1.07;;;19.00;1.00;;;;;;5016363;28;20431;-80
2023/09/23 14:57:44;;;;;;;2.80;1.20;;;18.90;1.00;;;;;;5023935;28;20394;-79
2023/09/23 15:00:15;;;;;;;3.17;1.30;;;18.90;1.00;;;;;;5003256;28;20774;-79
2023/09/23 15:02:42;;;;;;;4.43;1.20;;;18.90;1.00;;;;;;4999447;28;20457;-79
2023/09/23 15:05:08;;;;;;;2.57;1.30;;;18.90;1.00;;;;;;5017594;28;20426;-80
2023/09/23 15:07:39;;;;;;;3.37;1.13;;;19.00;1.00;;;;;;5028105;28;20419;-79
2023/09/23 15:10:06;;;;;;;3.63;1.30;;;19.20;1.00;;;;;;5026684;28;20932;-79
2023/09/23 15:16:27;;;;;;;3.17;1.37;;;19.50;1.00;;;;;;5006956;28;20422;-85
2023/09/23 15:18:53;;;;;;;2.00;1.20;;;19.40;1.00;;;;;;5027753;28;21034;-86
2023/09/23 15:24:44;;;;;;;2.23;1.10;;;;;;;;;;5010521;28;20495;-88
2023/09/23 15:27:35;;;;;;;2.70;1.07;;;19.70;1.00;;;;;;5028365;28;20517;-92
2023/09/23 15:30:02;;;;;;;3.37;1.50;;;19.70;1.00;;;;;;5007455;28;20407;-86
2023/09/23 15:35:52;;;;;;;2.90;1.10;;;19.70;1.00;;;;;;5020484;28;20428;-85
2023/09/23 15:38:44;;;;;;;2.00;1.10;;;19.70;1.00;;;;;;5014798;28;20559;-91